createdAt,value
2023-05-11T00:00:38.950Z,5.40
2023-05-11T00:03:05.678Z,6.93
2023-05-11T00:05:32.315Z,5.75
2023-05-11T00:07:58.887Z,4.82
2023-05-11T00:10:25.659Z,8.18
2023-05-11T00:12:52.250Z,6.05
2023-05-11T00:15:18.843Z,6.72
2023-05-11T00:17:45.731Z,6.95
2023-05-11T00:20:12.358Z,6.35
2023-05-11T00:22:38.962Z,5.60
2023-05-11T00:25:06.139Z,4.95
2023-05-11T00:27:32.971Z,5.80
2023-05-11T00:29:59.572Z,6.15
2023-05-11T00:32:26.386Z,6.65
2023-05-11T00:34:52.916Z,6.63
2023-05-11T00:37:19.456Z,4.65
2023-05-11T00:39:46.111Z,6.72
2023-05-11T00:42:12.553Z,5.40
2023-05-11T00:44:39.140Z,5.97
2023-05-11T00:47:06.277Z,8.30
2023-05-11T00:49:33.089Z,5.78
2023-05-11T00:51:59.698Z,6.68
2023-05-11T00:54:27.502Z,6.63
2023-05-11T00:56:53.840Z,5.53
2023-05-11T00:59:20.393Z,5.78
2023-05-11T01:01:46.763Z,6.97
2023-05-11T01:04:13.483Z,5.45
2023-05-11T01:07:08.770Z,5.65
2023-05-11T01:10:02.732Z,6.55
2023-05-11T01:12:53.042Z,6.15
2023-05-11T01:15:26.093Z,8.00
2023-05-11T01:18:06.334Z,8.80
2023-05-11T01:20:32.905Z,6.32
2023-05-11T01:23:08.145Z,5.72
2023-05-11T01:26:05.413Z,7.28
2023-05-11T01:29:01.682Z,6.05
2023-05-11T01:31:30.848Z,9.65
2023-05-11T01:34:03.884Z,5.07
2023-05-11T01:36:34.722Z,6.30
2023-05-11T01:39:04.284Z,6.45
2023-05-11T01:41:33.564Z,6.85
2023-05-11T01:44:04.078Z,7.30
2023-05-11T01:46:33.565Z,6.60
2023-05-11T01:49:02.887Z,7.55
2023-05-11T01:51:34.383Z,8.18
2023-05-11T01:54:02.284Z,5.80
2023-05-11T01:56:29.984Z,6.47
2023-05-11T01:58:57.966Z,6.70
2023-05-11T02:01:25.812Z,7.03
2023-05-11T02:03:54.243Z,6.97
2023-05-11T02:06:23.789Z,9.10
2023-05-11T02:08:50.887Z,6.78
2023-05-11T02:11:19.835Z,6.80
2023-05-11T02:13:47.472Z,7.65
2023-05-11T02:16:15.284Z,7.45
2023-05-11T02:18:42.910Z,7.88
2023-05-11T02:21:10.959Z,6.65
2023-05-11T02:23:38.326Z,6.25
2023-05-11T02:28:32.660Z,6.45
2023-05-11T02:31:04.543Z,6.28
2023-05-11T02:33:34.459Z,6.88
2023-05-11T02:36:03.275Z,5.35
2023-05-11T02:38:33.030Z,7.35
2023-05-11T02:41:04.059Z,7.38
2023-05-11T02:43:34.980Z,7.38
2023-05-11T02:46:08.628Z,7.43
2023-05-11T02:48:40.437Z,5.03
2023-05-11T02:51:10.100Z,5.47
2023-05-11T02:53:39.701Z,5.75
2023-05-11T02:56:07.471Z,5.55
2023-05-11T02:58:34.463Z,5.35
2023-05-11T03:01:01.373Z,5.78
2023-05-11T03:03:27.791Z,5.35
2023-05-11T03:05:54.239Z,5.95
2023-05-11T03:08:20.538Z,5.15
2023-05-11T03:10:47.050Z,4.20
2023-05-11T03:13:13.532Z,5.68
2023-05-11T03:15:41.282Z,5.13
2023-05-11T03:18:09.020Z,4.30
2023-05-11T03:20:38.996Z,4.95
2023-05-11T03:23:07.342Z,5.40
2023-05-11T03:25:34.577Z,5.03
2023-05-11T03:28:02.205Z,6.43
2023-05-11T03:30:29.520Z,6.35
2023-05-11T03:35:26.809Z,5.40
2023-05-11T03:37:54.981Z,6.30
2023-05-11T03:40:23.127Z,5.00
2023-05-11T03:42:53.152Z,4.22
2023-05-11T03:45:20.700Z,4.95
2023-05-11T03:47:48.821Z,4.55
2023-05-11T03:50:16.591Z,5.22
2023-05-11T03:52:43.827Z,4.05
2023-05-11T03:55:10.351Z,5.97
2023-05-11T03:57:36.803Z,3.97
2023-05-11T04:00:03.545Z,4.65
2023-05-11T04:02:30.032Z,5.15
2023-05-11T04:04:56.476Z,4.72
2023-05-11T04:07:22.815Z,4.50
2023-05-11T04:09:49.113Z,4.50
2023-05-11T04:12:15.410Z,5.07
2023-05-11T04:14:41.705Z,4.18
2023-05-11T04:17:08.026Z,2.83
2023-05-11T04:19:34.323Z,4.57
2023-05-11T04:22:00.663Z,4.00
2023-05-11T04:24:26.974Z,3.60
2023-05-11T04:26:56.901Z,5.55
2023-05-11T04:29:23.325Z,5.53
2023-05-11T04:31:49.697Z,3.67
2023-05-11T04:34:16.041Z,3.97
2023-05-11T04:36:42.365Z,4.57
2023-05-11T04:39:08.709Z,5.13
2023-05-11T04:41:35.025Z,3.72
2023-05-11T04:44:01.420Z,4.00
2023-05-11T04:46:27.778Z,4.47
2023-05-11T04:48:54.080Z,5.18
2023-05-11T04:51:20.593Z,3.97
2023-05-11T04:53:47.556Z,4.10
2023-05-11T04:56:14.032Z,4.00
2023-05-11T04:58:40.340Z,4.55
2023-05-11T05:01:06.761Z,4.03
2023-05-11T05:03:33.229Z,3.47
2023-05-11T05:05:59.681Z,4.00
2023-05-11T05:08:26.060Z,3.78
2023-05-11T05:10:52.342Z,3.35
2023-05-11T05:13:18.744Z,3.40
2023-05-11T05:15:45.062Z,4.50
2023-05-11T05:18:11.427Z,5.22
2023-05-11T05:20:37.865Z,4.43
2023-05-11T05:23:04.278Z,5.38
2023-05-11T05:25:30.587Z,3.40
2023-05-11T05:27:57.023Z,3.67
2023-05-11T05:30:23.390Z,3.83
2023-05-11T05:32:49.741Z,4.70
2023-05-11T05:35:16.111Z,3.70
2023-05-11T05:37:42.421Z,3.72
2023-05-11T05:40:09.194Z,3.83
2023-05-11T05:42:35.498Z,5.75
2023-05-11T05:45:01.791Z,5.07
2023-05-11T05:47:28.184Z,4.30
2023-05-11T05:49:54.482Z,2.85
2023-05-11T05:52:20.928Z,3.75
2023-05-11T05:54:47.269Z,5.28
2023-05-11T05:57:15.577Z,3.55
2023-05-11T05:59:42.141Z,4.93
2023-05-11T06:02:08.707Z,5.03
2023-05-11T06:04:35.094Z,3.40
2023-05-11T06:07:01.414Z,4.63
2023-05-11T06:09:27.740Z,4.55
2023-05-11T06:11:54.022Z,4.18
2023-05-11T06:14:20.392Z,3.90
2023-05-11T06:16:46.872Z,3.28
2023-05-11T06:19:13.282Z,3.20
2023-05-11T06:21:39.646Z,5.65
2023-05-11T06:24:06.237Z,5.30
2023-05-11T06:26:32.628Z,4.65
2023-05-11T06:28:58.915Z,4.45
2023-05-11T06:31:25.383Z,4.88
2023-05-11T06:33:51.689Z,4.43
2023-05-11T06:36:17.971Z,3.83
2023-05-11T06:38:44.270Z,4.85
2023-05-11T06:41:10.553Z,5.40
2023-05-11T06:43:37.785Z,4.25
2023-05-11T06:48:31.244Z,4.85
2023-05-11T06:50:57.572Z,3.95
2023-05-11T06:53:23.970Z,4.22
2023-05-11T06:55:50.508Z,3.60
2023-05-11T06:58:16.998Z,3.10
2023-05-11T07:00:43.347Z,4.10
2023-05-11T07:03:09.763Z,2.92
2023-05-11T07:05:36.419Z,4.18
2023-05-11T07:08:02.764Z,5.57
2023-05-11T07:10:29.055Z,4.22
2023-05-11T07:12:55.350Z,3.72
2023-05-11T07:15:21.735Z,5.80
2023-05-11T07:17:48.146Z,4.30
2023-05-11T07:20:14.764Z,4.38
2023-05-11T07:22:41.286Z,4.03
2023-05-11T07:25:08.067Z,3.80
2023-05-11T07:27:34.371Z,5.30
2023-05-11T07:30:00.764Z,4.50
2023-05-11T07:32:27.075Z,5.18
2023-05-11T07:34:53.420Z,4.75
2023-05-11T07:37:19.732Z,3.45
2023-05-11T07:39:46.045Z,3.97
2023-05-11T07:42:12.453Z,4.72
2023-05-11T07:44:38.801Z,4.07
2023-05-11T07:47:05.200Z,2.80
2023-05-11T07:49:42.982Z,3.55
2023-05-11T07:52:10.192Z,3.45
2023-05-11T07:54:36.558Z,3.72
2023-05-11T07:57:02.857Z,2.85
2023-05-11T07:59:29.165Z,4.30
2023-05-11T08:01:55.582Z,3.33
2023-05-11T08:04:21.926Z,3.28
2023-05-11T08:06:48.256Z,3.38
2023-05-11T08:09:15.222Z,3.70
2023-05-11T08:11:41.614Z,3.50
2023-05-11T08:14:07.930Z,4.35
2023-05-11T08:16:34.257Z,4.03
2023-05-11T08:19:00.657Z,4.03
2023-05-11T08:21:26.996Z,4.10
2023-05-11T08:23:53.312Z,3.45
2023-05-11T08:26:19.654Z,3.90
2023-05-11T08:28:45.940Z,6.20
2023-05-11T08:31:12.290Z,3.60
2023-05-11T08:33:39.101Z,3.95
2023-05-11T08:36:06.702Z,3.42
2023-05-11T08:38:33.073Z,3.58
2023-05-11T08:41:01.698Z,2.80
2023-05-11T08:43:29.934Z,3.17
2023-05-11T08:46:00.925Z,4.10
2023-05-11T08:48:28.221Z,4.82
2023-05-11T08:53:20.817Z,3.25
2023-05-11T08:55:48.117Z,3.17
2023-05-11T09:00:41.745Z,3.92
2023-05-11T09:03:09.083Z,3.65
2023-05-11T09:05:36.762Z,4.25
2023-05-11T09:08:05.845Z,3.97
2023-05-11T09:10:32.129Z,3.25
2023-05-11T09:12:58.435Z,4.35
2023-05-11T09:15:24.728Z,9.85
2023-05-11T09:17:51.119Z,5.13
2023-05-11T09:20:27.021Z,3.90
2023-05-11T09:22:54.204Z,3.00
2023-05-11T09:25:22.127Z,3.15
2023-05-11T09:27:48.527Z,3.15
2023-05-11T09:30:23.257Z,3.60
2023-05-11T09:32:52.853Z,3.90
2023-05-11T09:35:30.303Z,3.60
2023-05-11T09:38:07.509Z,4.40
2023-05-11T09:40:39.891Z,3.90
2023-05-11T09:43:16.755Z,3.60
2023-05-11T09:45:45.319Z,3.90
2023-05-11T09:48:20.846Z,4.20
2023-05-11T09:50:48.925Z,4.40
2023-05-11T09:53:15.376Z,3.70
2023-05-11T09:55:52.617Z,4.20
2023-05-11T09:58:19.015Z,5.47
2023-05-11T10:00:50.047Z,4.85
2023-05-11T10:03:16.515Z,5.70
2023-05-11T10:06:00.665Z,3.88
2023-05-11T10:08:31.543Z,4.95
2023-05-11T10:10:58.040Z,4.15
2023-05-11T10:13:24.777Z,4.20
2023-05-11T10:15:51.886Z,5.03
2023-05-11T10:18:20.125Z,5.18
2023-05-11T10:20:47.619Z,4.43
2023-05-11T10:23:14.508Z,4.45
2023-05-11T10:25:41.066Z,4.57
2023-05-11T10:28:07.872Z,3.70
2023-05-11T10:30:34.954Z,4.72
2023-05-11T10:33:01.743Z,4.57
2023-05-11T10:35:28.159Z,5.80
2023-05-11T10:37:54.721Z,4.53
2023-05-11T10:40:21.679Z,4.65
2023-05-11T10:43:19.048Z,4.40
2023-05-11T10:46:08.525Z,3.80
2023-05-11T10:48:52.741Z,5.03
2023-05-11T10:51:51.333Z,4.18
2023-05-11T10:54:44.982Z,4.20
2023-05-11T10:57:48.590Z,4.25
2023-05-11T11:03:09.675Z,3.53
2023-05-11T11:05:36.411Z,3.22
2023-05-11T11:08:02.953Z,3.67
2023-05-11T11:10:37.461Z,4.60
2023-05-11T11:13:08.582Z,4.22
2023-05-11T11:15:53.129Z,4.15
2023-05-11T11:18:24.139Z,3.65
2023-05-11T11:20:55.509Z,3.00
2023-05-11T11:23:39.889Z,4.45
2023-05-11T11:26:07.245Z,3.38
2023-05-11T11:28:55.361Z,3.35
2023-05-11T11:31:34.607Z,4.55
2023-05-11T11:34:26.755Z,4.40
2023-05-11T11:36:56.099Z,2.95
2023-05-11T11:39:23.301Z,4.95
2023-05-11T11:42:05.811Z,5.07
2023-05-11T11:44:34.093Z,3.70
2023-05-11T11:47:17.452Z,6.00
2023-05-11T11:49:45.645Z,4.20
2023-05-11T11:52:33.257Z,4.18
2023-05-11T11:55:00.854Z,3.60
2023-05-11T11:57:30.137Z,5.57
2023-05-11T11:59:56.560Z,3.55
2023-05-11T12:02:23.328Z,4.10
2023-05-11T12:04:56.024Z,3.42
2023-05-11T12:07:24.795Z,3.42
2023-05-11T12:09:51.455Z,3.17
2023-05-11T12:12:19.161Z,4.22
2023-05-11T12:14:47.176Z,4.78
2023-05-11T12:17:13.500Z,3.45
2023-05-11T12:19:39.940Z,5.70
2023-05-11T12:22:06.265Z,4.10
2023-05-11T12:24:33.154Z,4.00
2023-05-11T12:27:02.797Z,4.03
2023-05-11T12:29:29.134Z,3.83
2023-05-11T12:31:55.461Z,4.63
2023-05-11T12:34:22.718Z,3.42
2023-05-11T12:39:21.265Z,4.38
2023-05-11T12:41:49.320Z,3.78
2023-05-11T12:44:17.196Z,3.38
2023-05-11T12:46:45.889Z,4.18
2023-05-11T12:49:15.728Z,4.65
2023-05-11T12:51:45.934Z,4.28
2023-05-11T12:54:12.730Z,3.60
2023-05-11T12:56:46.439Z,4.97
2023-05-11T12:59:28.860Z,3.83
2023-05-11T13:01:55.594Z,4.38
2023-05-11T13:04:32.049Z,4.05
2023-05-11T13:06:58.626Z,5.43
2023-05-11T13:09:26.241Z,5.38
2023-05-11T13:12:15.145Z,3.67
2023-05-11T13:14:41.633Z,5.45
2023-05-11T13:17:08.021Z,3.60
2023-05-11T13:19:34.507Z,3.90
2023-05-11T13:22:00.873Z,4.30
2023-05-11T13:24:27.362Z,3.58
2023-05-11T13:26:54.872Z,4.20
2023-05-11T13:29:21.221Z,3.40
2023-05-11T13:31:49.221Z,4.03
2023-05-11T13:34:15.813Z,4.35
2023-05-11T13:36:42.273Z,4.05
2023-05-11T13:39:09.277Z,4.10
2023-05-11T13:41:35.595Z,3.60
2023-05-11T13:44:01.958Z,4.03
2023-05-11T13:46:28.314Z,3.88
2023-05-11T13:48:55.049Z,4.68
2023-05-11T13:51:22.058Z,3.72
2023-05-11T13:53:48.360Z,4.55
2023-05-11T13:56:15.196Z,4.60
2023-05-11T13:58:41.504Z,3.45
2023-05-11T14:01:08.657Z,3.35
2023-05-11T14:06:02.948Z,3.50
2023-05-11T14:08:29.269Z,3.42
2023-05-11T14:10:55.614Z,3.95
2023-05-11T14:13:21.962Z,4.88
2023-05-11T14:15:48.280Z,4.60
2023-05-11T14:18:14.825Z,5.10
2023-05-11T14:20:41.290Z,3.53
2023-05-11T14:23:07.636Z,3.35
2023-05-11T14:25:33.948Z,3.85
2023-05-11T14:28:00.244Z,5.40
2023-05-11T14:30:26.606Z,6.45
2023-05-11T14:32:53.004Z,3.92
2023-05-11T14:35:19.600Z,3.67
2023-05-11T14:37:46.115Z,3.47
2023-05-11T14:40:12.495Z,3.90
2023-05-11T14:42:38.805Z,3.35
2023-05-11T14:45:06.206Z,5.05
2023-05-11T14:47:32.649Z,5.07
2023-05-11T14:49:58.927Z,4.03
2023-05-11T14:52:25.213Z,2.97
2023-05-11T14:54:51.524Z,3.58
2023-05-11T14:57:17.882Z,5.05
2023-05-11T14:59:55.157Z,3.15
2023-05-11T15:02:26.007Z,4.40
2023-05-11T15:04:52.614Z,4.20
2023-05-11T15:07:18.948Z,3.25
2023-05-11T15:09:45.276Z,3.40
2023-05-11T15:12:11.591Z,4.07
2023-05-11T15:14:37.927Z,3.40
2023-05-11T15:17:04.346Z,3.42
2023-05-11T15:19:30.637Z,2.63
2023-05-11T15:21:56.926Z,3.63
2023-05-11T15:24:23.222Z,3.75
2023-05-11T15:26:49.553Z,4.28
2023-05-11T15:29:15.843Z,4.65
2023-05-11T15:31:42.833Z,3.83
2023-05-11T15:34:09.169Z,4.60
2023-05-11T15:36:35.682Z,3.67
2023-05-11T15:39:02.078Z,3.47
2023-05-11T15:41:28.381Z,5.10
2023-05-11T15:43:54.687Z,5.95
2023-05-11T15:46:21.100Z,3.47
2023-05-11T15:48:47.545Z,5.75
2023-05-11T15:51:13.886Z,3.92
2023-05-11T15:53:40.244Z,4.53
2023-05-11T15:56:06.710Z,3.25
2023-05-11T15:58:33.008Z,4.65
2023-05-11T16:00:59.359Z,4.43
2023-05-11T16:03:26.061Z,5.70
2023-05-11T16:05:52.636Z,5.93
2023-05-11T16:08:19.005Z,5.45
2023-05-11T16:10:45.428Z,6.38
2023-05-11T16:13:11.716Z,5.18
2023-05-11T16:15:38.114Z,5.47
2023-05-11T16:18:05.280Z,6.07
2023-05-11T16:20:32.089Z,6.68
2023-05-11T16:22:58.446Z,3.47
2023-05-11T16:25:24.869Z,3.08
2023-05-11T16:27:51.182Z,3.15
2023-05-11T16:30:24.470Z,3.70
2023-05-11T16:32:52.326Z,5.78
2023-05-11T16:35:18.809Z,5.40
2023-05-11T16:37:45.157Z,5.78
2023-05-11T16:40:11.740Z,6.00
2023-05-11T16:42:38.066Z,6.32
2023-05-11T16:45:04.876Z,5.10
2023-05-11T16:47:31.307Z,5.40
2023-05-11T16:49:57.748Z,5.60
2023-05-11T16:52:24.170Z,4.45
2023-05-11T16:54:50.489Z,6.50
2023-05-11T16:57:16.813Z,4.63
2023-05-11T16:59:43.197Z,5.40
2023-05-11T17:02:09.560Z,4.47
2023-05-11T17:04:35.939Z,2.63
2023-05-11T17:07:02.332Z,2.25
2023-05-11T17:09:28.633Z,1.58
2023-05-11T17:11:55.363Z,2.53
2023-05-11T17:14:21.736Z,2.80
2023-05-11T17:16:48.061Z,3.97
2023-05-11T17:19:14.483Z,2.30
2023-05-11T17:21:41.203Z,2.40
2023-05-11T17:24:07.879Z,2.05
2023-05-11T17:26:46.497Z,2.40
2023-05-11T17:29:14.718Z,2.92
2023-05-11T17:31:41.282Z,4.10
2023-05-11T17:34:08.008Z,2.78
2023-05-11T17:36:34.707Z,2.75
2023-05-11T17:39:01.013Z,2.03
2023-05-11T17:41:27.349Z,2.22
2023-05-11T17:43:53.806Z,2.20
2023-05-11T17:46:20.104Z,2.85
2023-05-11T17:48:46.570Z,5.78
2023-05-11T17:51:13.229Z,6.45
2023-05-11T17:53:39.630Z,5.80
2023-05-11T17:56:06.269Z,8.23
2023-05-11T17:58:32.661Z,6.05
2023-05-11T18:00:59.054Z,6.50
2023-05-11T18:03:25.509Z,8.73
2023-05-11T18:05:51.941Z,18.60
2023-05-11T18:08:18.259Z,21.02
2023-05-11T18:10:44.583Z,36.75
2023-05-11T18:13:10.909Z,24.08
2023-05-11T18:15:37.254Z,29.40
2023-05-11T18:18:03.798Z,19.50
2023-05-11T18:20:30.318Z,15.20
2023-05-11T18:22:56.622Z,6.38
2023-05-11T18:25:24.060Z,7.65
2023-05-11T18:27:50.505Z,4.07
2023-05-11T18:30:17.081Z,5.75
2023-05-11T18:32:43.915Z,3.17
2023-05-11T18:35:10.272Z,4.57
2023-05-11T18:37:36.640Z,3.88
2023-05-11T18:40:03.133Z,5.03
2023-05-11T18:42:29.464Z,6.53
2023-05-11T18:44:55.829Z,7.43
2023-05-11T18:47:22.134Z,9.57
2023-05-11T18:49:49.214Z,5.80
2023-05-11T18:52:15.746Z,8.50
2023-05-11T18:54:42.076Z,8.35
2023-05-11T18:57:08.379Z,7.38
2023-05-11T18:59:34.760Z,7.78
2023-05-11T19:02:01.190Z,8.13
2023-05-11T19:04:27.607Z,11.77
2023-05-11T19:06:53.979Z,13.32
2023-05-11T19:09:20.297Z,19.13
2023-05-11T19:11:46.738Z,17.65
2023-05-11T19:14:13.098Z,15.93
2023-05-11T19:16:39.511Z,16.38
2023-05-11T19:19:06.096Z,14.65
2023-05-11T19:21:32.682Z,10.93
2023-05-11T19:23:58.965Z,4.60
2023-05-11T19:26:25.250Z,4.18
2023-05-11T19:28:51.590Z,3.30
2023-05-11T19:31:17.969Z,4.93
2023-05-11T19:33:44.264Z,2.45
2023-05-11T19:36:10.583Z,3.88
2023-05-11T19:38:37.507Z,2.83
2023-05-11T19:41:03.919Z,3.70
2023-05-11T19:43:30.247Z,4.15
2023-05-11T19:45:56.608Z,3.63
2023-05-11T19:48:23.072Z,3.78
2023-05-11T19:50:52.116Z,3.22
2023-05-11T19:53:18.437Z,4.18
2023-05-11T19:55:47.246Z,3.53
2023-05-11T19:58:14.336Z,3.25
2023-05-11T20:00:40.705Z,3.33
2023-05-11T20:03:07.538Z,2.95
2023-05-11T20:05:34.002Z,4.45
2023-05-11T20:08:00.536Z,3.92
2023-05-11T20:10:26.877Z,3.58
2023-05-11T20:12:53.320Z,4.43
2023-05-11T20:15:19.732Z,4.70
2023-05-11T20:17:46.090Z,5.18
2023-05-11T20:20:12.570Z,5.38
2023-05-11T20:22:38.837Z,3.67
2023-05-11T20:25:11.609Z,4.78
2023-05-11T20:27:43.215Z,6.13
2023-05-11T20:30:09.894Z,4.95
2023-05-11T20:32:36.227Z,4.57
2023-05-11T20:35:03.576Z,5.43
2023-05-11T20:37:30.642Z,4.35
2023-05-11T20:39:57.299Z,4.95
2023-05-11T20:42:23.679Z,4.40
2023-05-11T20:44:50.068Z,6.32
2023-05-11T20:47:19.065Z,6.18
2023-05-11T20:49:45.554Z,4.65
2023-05-11T20:52:11.875Z,4.35
2023-05-11T20:54:38.235Z,5.55
2023-05-11T20:57:05.079Z,5.68
2023-05-11T21:02:01.764Z,8.90
2023-05-11T21:04:28.094Z,5.30
2023-05-11T21:06:55.143Z,6.82
2023-05-11T21:09:21.522Z,6.03
2023-05-11T21:11:48.107Z,6.38
2023-05-11T21:14:14.984Z,8.45
2023-05-11T21:16:41.330Z,7.32
2023-05-11T21:19:07.818Z,6.82
2023-05-11T21:21:34.230Z,7.97
2023-05-11T21:24:00.578Z,7.72
2023-05-11T21:26:26.867Z,7.68
2023-05-11T21:28:53.191Z,8.30
2023-05-11T21:31:19.612Z,7.25
2023-05-11T21:33:46.347Z,8.32
2023-05-11T21:36:12.697Z,6.72
2023-05-11T21:38:39.015Z,7.22
2023-05-11T21:41:05.348Z,6.82
2023-05-11T21:43:31.755Z,6.72
2023-05-11T21:45:58.156Z,7.50
2023-05-11T21:48:24.564Z,8.52
2023-05-11T21:50:54.875Z,6.38
2023-05-11T21:53:22.420Z,7.72
2023-05-11T21:55:49.825Z,8.52
2023-05-11T22:00:42.472Z,8.25
2023-05-11T22:03:08.889Z,8.00
2023-05-11T22:05:35.395Z,6.97
2023-05-11T22:08:10.879Z,6.95
2023-05-11T22:10:41.667Z,8.73
2023-05-11T22:13:08.003Z,9.48
2023-05-11T22:15:34.315Z,8.68
2023-05-11T22:18:00.707Z,6.97
2023-05-11T22:20:27.086Z,8.25
2023-05-11T22:22:53.437Z,7.18
2023-05-11T22:25:19.928Z,7.75
2023-05-11T22:27:46.244Z,7.00
2023-05-11T22:30:12.724Z,7.10
2023-05-11T22:32:39.150Z,11.38
2023-05-11T22:35:05.966Z,6.97
2023-05-11T22:37:32.344Z,7.60
2023-05-11T22:39:58.895Z,7.13
2023-05-11T22:42:25.244Z,7.65
2023-05-11T22:44:51.768Z,6.97
2023-05-11T22:47:18.078Z,7.38
2023-05-11T22:49:44.384Z,6.10
2023-05-11T22:52:10.732Z,6.18
2023-05-11T22:54:37.033Z,7.60
2023-05-11T22:57:03.425Z,8.48
2023-05-11T22:59:29.910Z,5.70
2023-05-11T23:01:56.307Z,8.40
2023-05-11T23:04:22.778Z,8.45
2023-05-11T23:06:49.266Z,5.82
2023-05-11T23:09:15.594Z,7.95
2023-05-11T23:11:41.946Z,5.82
2023-05-11T23:14:08.237Z,6.95
2023-05-11T23:16:34.586Z,7.38
2023-05-11T23:19:01.265Z,7.97
2023-05-11T23:21:28.274Z,6.38
2023-05-11T23:23:54.639Z,6.78
2023-05-11T23:26:20.937Z,7.82
2023-05-11T23:28:47.498Z,7.45
2023-05-11T23:31:13.827Z,7.38
2023-05-11T23:33:40.200Z,7.05
2023-05-11T23:36:07.142Z,7.78
2023-05-11T23:38:33.532Z,6.68
2023-05-11T23:40:59.821Z,6.22
2023-05-11T23:43:26.117Z,6.60
2023-05-11T23:45:52.552Z,9.07
2023-05-11T23:48:18.872Z,7.32
2023-05-11T23:50:45.456Z,7.80
2023-05-11T23:53:12.073Z,8.70
2023-05-11T23:55:38.356Z,8.63
2023-05-11T23:58:04.670Z,5.82
